Time;durP1;ratioP1;P1;durP2;ratioP2;P2;SDS_P1;SDS_P2;PMS_P1;PMS_P2;Temp;Humidity;BMP_temperature;BMP_pressure;BME280_temperature;BME280_humidity;BME280_pressure;Samples;Min_cycle;Max_cycle;Signal;HPM_P1;HPM_P2
2022/05/14 00:01:13;;;;;;;5.73;2.40;;;;;;;22.68;53.11;100807.03;5093323;28;20425;-62
2022/05/14 00:03:40;;;;;;;6.87;1.63;;;;;;;22.67;53.12;100803.31;5093287;28;20178;-62
2022/05/14 00:06:07;;;;;;;4.20;1.90;;;;;;;22.65;52.96;100808.66;5107014;28;20419;-62
2022/05/14 00:08:32;;;;;;;4.20;1.60;;;;;;;22.65;53.13;100808.66;5112147;28;20426;-62
2022/05/14 00:13:42;;;;;;;7.50;1.53;;;;;;;22.64;53.04;100812.78;5111059;28;20262;-62
2022/05/14 00:16:07;;;;;;;5.33;2.00;;;;;;;22.64;52.64;100809.06;5111888;28;20420;-62
2022/05/14 00:18:33;;;;;;;6.10;2.10;;;;;;;22.63;52.80;100804.53;5132265;27;20552;-62
2022/05/14 00:20:59;;;;;;;4.43;2.10;;;;;;;22.62;52.89;100803.69;5132361;27;20518;-62
2022/05/14 00:23:25;;;;;;;3.40;1.50;;;;;;;22.61;53.17;100807.81;5133201;27;20264;-62
2022/05/14 00:25:51;;;;;;;8.00;1.70;;;;;;;22.60;52.96;100800.41;5133444;27;20181;-62
2022/05/14 00:28:16;;;;;;;3.23;1.60;;;;;;;22.59;52.99;100798.75;5133951;27;20547;-62
2022/05/14 00:30:42;;;;;;;3.77;1.90;;;;;;;22.59;52.65;100798.75;5108733;27;20661;-62
2022/05/14 00:33:07;;;;;;;4.67;2.10;;;;;;;22.59;53.11;100798.75;5092656;28;20166;-62
2022/05/14 00:35:33;;;;;;;3.70;1.60;;;;;;;22.57;53.16;100795.41;5092969;28;20182;-62
2022/05/14 00:37:58;;;;;;;3.73;1.70;;;;;;;22.58;52.77;100808.56;5092524;28;20548;-62
2022/05/14 00:40:27;;;;;;;2.80;1.70;;;;;;;22.57;52.95;100801.19;5092498;28;20531;-62
2022/05/14 00:42:52;;;;;;;3.40;1.50;;;;;;;22.56;52.64;100799.53;5092588;28;20641;-62
2022/05/14 00:45:18;;;;;;;4.13;1.80;;;;;;;22.56;52.77;100805.28;5092293;28;20448;-62
2022/05/14 00:47:45;;;;;;;3.27;1.50;;;;;;;22.55;53.06;100802.78;5092921;28;20278;-62
2022/05/14 00:50:25;;;;;;;4.30;2.00;;;;;;;22.55;52.85;100797.88;5097829;28;20201;-62
2022/05/14 00:52:55;;;;;;;5.50;1.87;;;;;;;22.55;52.66;100803.63;5110854;28;20455;-62
2022/05/14 00:55:20;;;;;;;3.37;1.83;;;;;;;22.54;52.87;100796.22;5109601;28;20502;-62
2022/05/14 00:57:46;;;;;;;4.57;1.73;;;;;;;22.54;52.83;100795.38;5111340;28;20514;-62
2022/05/14 01:00:15;;;;;;;5.30;2.07;;;;;;;22.52;52.77;100798.66;5101290;28;20197;-62
2022/05/14 01:02:41;;;;;;;3.70;2.10;;;;;;;22.53;53.04;100791.66;5090848;28;20174;-62
2022/05/14 01:05:09;;;;;;;2.93;1.60;;;;;;;22.52;52.92;100797.84;5090625;28;20931;-62
2022/05/14 01:07:37;;;;;;;3.37;1.70;;;;;;;22.51;52.53;100797.00;5089374;28;20186;-62
2022/05/14 01:10:03;;;;;;;2.93;1.50;;;;;;;22.51;53.14;100797.00;5090476;28;20464;-62
2022/05/14 01:12:29;;;;;;;4.47;1.63;;;;;;;22.50;52.91;100795.38;5091490;28;20416;-62
2022/05/14 01:15:05;;;;;;;3.73;1.83;;;;;;;22.50;52.77;100794.53;5090525;28;20416;-62
2022/05/14 01:17:31;;;;;;;3.60;2.10;;;;;;;22.49;53.40;100795.75;5098266;27;20553;-62
2022/05/14 01:19:56;;;;;;;5.60;1.83;;;;;;;22.47;53.11;100790.38;5132636;27;20414;-62
2022/05/14 01:22:34;;;;;;;4.07;2.10;;;;;;;22.47;53.39;100787.50;5132574;27;20635;-62
2022/05/14 01:27:58;;;;;;;3.63;1.83;;;;;;;22.47;52.91;100784.63;5131941;27;20484;-62
2022/05/14 01:30:23;;;;;;;3.60;1.67;;;;;;;22.47;52.59;100789.56;5110744;27;20846;-62
2022/05/14 01:33:04;;;;;;;2.77;1.40;;;;;;;22.46;53.12;100788.75;5091475;28;20178;-62
2022/05/14 01:35:37;;;;;;;3.80;1.53;;;;;;;22.45;52.66;100789.97;5081813;28;20172;-62
2022/05/14 01:38:02;;;;;;;3.47;1.63;;;;;;;22.45;53.14;100786.25;5107359;28;20423;-62
2022/05/14 01:40:28;;;;;;;4.07;1.80;;;;;;;22.44;52.64;100788.31;5111955;28;20422;-62
2022/05/14 01:42:54;;;;;;;6.07;1.93;;;;;;;22.42;53.13;100784.97;5111704;28;20180;-62
2022/05/14 01:45:20;;;;;;;4.67;2.43;;;;;;;22.43;52.96;100789.47;5110206;28;20435;-62
2022/05/14 01:47:45;;;;;;;3.30;1.50;;;;;;;22.42;52.66;100784.97;5110314;28;20680;-62
2022/05/14 01:50:11;;;;;;;4.80;1.60;;;;;;;22.41;53.14;100786.19;5109855;28;20196;-62
2022/05/14 01:52:36;;;;;;;3.10;1.63;;;;;;;22.40;52.75;100781.66;5110274;28;20210;-62
2022/05/14 01:55:02;;;;;;;5.90;1.90;;;;;;;22.41;53.02;100785.34;5106364;28;20185;-62
2022/05/14 01:57:27;;;;;;;3.30;1.70;;;;;;;22.40;53.09;100790.28;5109789;28;20207;-62
2022/05/14 01:59:53;;;;;;;7.03;1.80;;;;;;;22.39;52.49;100782.88;5105203;28;20183;-62
2022/05/14 02:02:18;;;;;;;4.37;2.10;;;;;;;22.39;52.83;100777.13;5091101;28;20239;-62
2022/05/14 02:04:43;;;;;;;3.40;1.60;;;;;;;22.38;52.68;100781.22;5091152;28;20166;-62
2022/05/14 02:07:09;;;;;;;4.20;1.87;;;;;;;22.38;52.58;100784.09;5098697;28;20207;-62
2022/05/14 02:09:34;;;;;;;4.73;1.90;;;;;;;22.37;52.50;100791.06;5111300;28;20214;-62
2022/05/14 02:12:01;;;;;;;3.30;1.60;;;;;;;22.36;52.89;100789.41;5110991;28;20193;-62
2022/05/14 02:14:26;;;;;;;2.97;1.40;;;;;;;22.36;53.14;100785.72;5111610;28;20173;-62
2022/05/14 02:16:52;;;;;;;3.10;1.50;;;;;;;22.35;52.55;100793.53;5117503;28;20414;-62
2022/05/14 02:19:17;;;;;;;2.33;1.53;;;;;;;22.35;52.78;100795.56;5112657;27;20656;-62
2022/05/14 02:21:43;;;;;;;3.90;1.67;;;;;;;22.34;52.97;100797.63;5111294;28;20170;-62
2022/05/14 02:24:08;;;;;;;3.63;1.93;;;;;;;22.33;52.96;100792.28;5111273;28;20247;-62
2022/05/14 02:26:33;;;;;;;2.53;1.60;;;;;;;22.32;52.57;100791.44;5111111;28;20180;-62
2022/05/14 02:28:59;;;;;;;3.30;1.63;;;;;;;22.32;53.06;100797.19;5111477;28;20201;-62
2022/05/14 02:31:24;;;;;;;4.50;1.40;;;;;;;22.33;53.12;100795.16;5092628;28;20206;-62
2022/05/14 02:33:50;;;;;;;3.00;1.53;;;;;;;22.32;52.40;100796.38;5090927;28;20181;-62
2022/05/14 02:36:16;;;;;;;4.90;1.53;;;;;;;22.32;52.89;100799.25;5091066;28;20310;-62
2022/05/14 02:38:42;;;;;;;2.23;1.13;;;;;;;22.31;52.94;100800.44;5091007;28;20182;-62
2022/05/14 02:41:07;;;;;;;2.70;1.50;;;;;;;22.29;52.52;100792.25;5090543;28;20417;-62
2022/05/14 02:43:33;;;;;;;3.80;1.30;;;;;;;22.28;52.46;100793.44;5090788;28;20532;-62
2022/05/14 02:45:59;;;;;;;2.90;1.77;;;;;;;22.28;52.75;100793.44;5090733;28;20186;-62
2022/05/14 02:48:25;;;;;;;6.90;1.60;;;;;;;22.29;52.64;100794.28;5099722;28;20173;-62
2022/05/14 02:50:51;;;;;;;4.30;2.37;;;;;;;22.28;52.70;100790.56;5114632;28;20455;-62
2022/05/14 02:53:16;;;;;;;3.90;1.57;;;;;;;22.27;52.96;100788.91;5115113;28;20484;-62
2022/05/14 02:55:42;;;;;;;3.27;1.60;;;;;;;22.26;52.51;100787.25;5115273;28;20243;-62
2022/05/14 02:58:07;;;;;;;2.77;1.60;;;;;;;22.25;52.84;100788.50;5115004;28;20628;-62
2022/05/14 03:00:32;;;;;;;4.97;1.73;;;;;;;22.25;52.80;100781.91;5103717;28;20625;-62
2022/05/14 03:02:58;;;;;;;3.57;1.50;;;;;;;22.24;53.02;100786.84;5094085;28;20277;-62
2022/05/14 03:05:24;;;;;;;2.47;1.50;;;;;;;22.24;52.62;100781.09;5091804;28;20558;-62
2022/05/14 03:07:49;;;;;;;3.60;1.47;;;;;;;22.23;52.54;100785.16;5092949;28;20240;-62
2022/05/14 03:10:15;;;;;;;3.70;1.73;;;;;;;22.23;53.01;100784.34;5092370;28;20214;-62
2022/05/14 03:12:40;;;;;;;4.23;1.70;;;;;;;22.22;52.46;100776.94;5092957;28;20533;-62
2022/05/14 03:15:06;;;;;;;3.03;1.40;;;;;;;22.21;52.58;100787.63;5092805;28;20166;-62
2022/05/14 03:17:34;;;;;;;3.40;1.70;;;;;;;22.21;52.58;100784.75;5116499;27;20177;-62
2022/05/14 03:20:01;;;;;;;3.27;1.60;;;;;;;22.20;52.48;100780.22;5135040;27;20814;-62
2022/05/14 03:22:27;;;;;;;3.43;1.60;;;;;;;22.19;52.78;100781.44;5135105;27;20781;-62
2022/05/14 03:24:52;;;;;;;3.93;1.40;;;;;;;22.19;52.86;100778.56;5134971;27;20418;-62
2022/05/14 03:27:17;;;;;;;3.13;1.57;;;;;;;22.17;52.91;100778.13;5135001;27;20183;-62
2022/05/14 03:29:43;;;;;;;2.67;1.50;;;;;;;22.17;52.76;100780.19;5119413;27;20182;-62
2022/05/14 03:32:08;;;;;;;3.20;1.90;;;;;;;22.16;52.53;100784.25;5114289;28;20564;-62
2022/05/14 03:34:34;;;;;;;3.10;1.60;;;;;;;22.15;52.98;100782.59;5114258;28;20528;-62
2022/05/14 03:37:00;;;;;;;3.43;1.50;;;;;;;22.15;52.49;100783.44;5114208;28;20185;-62
2022/05/14 03:39:25;;;;;;;4.50;1.40;;;;;;;22.14;52.71;100786.72;5109205;28;20582;-62
2022/05/14 03:41:51;;;;;;;5.57;1.47;;;;;;;22.14;53.07;100781.81;5112660;28;20419;-62
2022/05/14 03:44:16;;;;;;;2.83;1.40;;;;;;;22.14;52.58;100780.97;5112178;28;20552;-62
2022/05/14 03:46:42;;;;;;;3.23;1.43;;;;;;;22.13;52.38;100785.06;5112359;28;20178;-62
2022/05/14 03:49:08;;;;;;;3.67;1.60;;;;;;;22.13;52.93;100785.06;5112119;28;20192;-62
2022/05/14 03:51:33;;;;;;;4.90;1.47;;;;;;;22.12;52.52;100789.16;5112135;28;20304;-62
2022/05/14 03:53:59;;;;;;;3.73;1.33;;;;;;;22.12;52.76;100784.22;5111829;28;20637;-62
2022/05/14 03:56:25;;;;;;;4.33;1.57;;;;;;;22.11;52.47;100788.31;5113041;28;20177;-62
2022/05/14 03:58:50;;;;;;;2.73;1.50;;;;;;;22.11;52.82;100782.56;5113007;28;20894;-62
2022/05/14 04:01:16;;;;;;;2.30;1.37;;;;;;;22.11;52.84;100785.44;5096568;28;20175;-62
2022/05/14 04:03:41;;;;;;;2.67;1.47;;;;;;;22.10;52.33;100786.69;5101863;28;20174;-62
2022/05/14 04:06:07;;;;;;;3.70;1.73;;;;;;;22.09;52.45;100782.16;5093259;28;20596;-62
2022/05/14 04:08:33;;;;;;;2.70;1.37;;;;;;;22.09;52.38;100790.78;5091123;28;20186;-62
2022/05/14 04:10:58;;;;;;;3.53;2.17;;;;;;;22.08;52.26;100779.66;5103542;28;20235;-62
2022/05/14 04:13:24;;;;;;;3.97;1.80;;;;;;;22.08;52.11;100788.28;5103218;28;20791;-62
2022/05/14 04:15:50;;;;;;;5.30;1.70;;;;;;;22.07;52.78;100787.44;5090726;28;20181;-62
2022/05/14 04:18:20;;;;;;;4.47;2.00;;;;;;;22.07;52.41;100792.41;5125952;27;20316;-62
2022/05/14 04:20:45;;;;;;;4.73;1.90;;;;;;;22.07;52.79;100792.41;5132649;27;20222;-62
2022/05/14 04:23:10;;;;;;;2.90;1.50;;;;;;;22.06;52.43;100791.56;5132295;27;20426;-62
2022/05/14 04:25:36;;;;;;;2.83;1.23;;;;;;;22.06;52.58;100784.97;5134041;27;20169;-62
2022/05/14 04:28:01;;;;;;;3.20;1.53;;;;;;;22.06;52.68;100790.72;5133962;27;20181;-62
2022/05/14 04:30:27;;;;;;;4.43;1.70;;;;;;;22.06;52.11;100797.31;5113067;27;20198;-62
2022/05/14 04:32:52;;;;;;;3.13;1.57;;;;;;;22.06;52.67;100797.31;5091360;28;20671;-62
2022/05/14 04:35:18;;;;;;;3.97;2.20;;;;;;;22.07;52.18;100793.19;5092538;28;20174;-62
2022/05/14 04:37:43;;;;;;;4.63;2.10;;;;;;;22.08;52.68;100794.84;5092525;28;20177;-62
2022/05/14 04:40:10;;;;;;;4.43;2.40;;;;;;;22.07;52.70;100790.31;5092650;28;20178;-62
2022/05/14 04:42:38;;;;;;;4.03;2.50;;;;;;;22.08;52.53;100794.84;5108969;28;20185;-62
2022/05/14 04:45:08;;;;;;;3.50;2.10;;;;;;;22.08;52.15;100794.03;5112303;28;20439;-62
2022/05/14 04:47:34;;;;;;;3.20;1.90;;;;;;;22.06;52.37;100803.06;5112933;28;20519;-62
2022/05/14 04:49:59;;;;;;;5.20;2.50;;;;;;;22.06;52.25;100803.06;5111395;28;20420;-62
2022/05/14 04:52:25;;;;;;;4.43;2.33;;;;;;;22.05;52.10;100801.41;5112481;28;20169;-62
2022/05/14 04:54:50;;;;;;;3.57;2.03;;;;;;;22.07;52.48;100801.81;5112404;28;20185;-62
2022/05/14 04:57:16;;;;;;;4.93;2.00;;;;;;;22.09;52.24;100810.91;5112721;28;20172;-62
2022/05/14 04:59:41;;;;;;;4.73;2.27;;;;;;;22.11;52.66;100805.59;5108781;28;20174;-62
2022/05/14 05:04:50;;;;;;;5.10;2.70;;;;;;;22.12;52.20;100809.28;5090685;28;20208;-62
2022/05/14 05:07:16;;;;;;;3.10;2.07;;;;;;;22.11;51.89;100799.81;5092271;28;20417;-62
2022/05/14 05:09:41;;;;;;;4.50;2.53;;;;;;;22.09;52.23;100810.91;5091772;28;20226;-62
2022/05/14 05:12:07;;;;;;;5.47;2.77;;;;;;;22.09;52.19;100805.16;5091130;28;20198;-62
2022/05/14 05:14:32;;;;;;;4.30;2.27;;;;;;;22.07;52.01;100816.22;5091693;28;20178;-62
2022/05/14 05:16:58;;;;;;;4.43;2.20;;;;;;;22.07;51.79;100798.16;5106030;27;20483;-62
2022/05/14 05:19:23;;;;;;;5.80;2.53;;;;;;;22.08;52.15;100817.03;5132595;27;20638;-62
2022/05/14 05:21:49;;;;;;;6.43;2.50;;;;;;;22.06;52.25;100817.44;5132892;27;20725;-62
2022/05/14 05:24:15;;;;;;;5.40;2.23;;;;;;;22.06;52.10;100810.84;5132469;27;20180;-62
2022/05/14 05:26:40;;;;;;;5.07;2.33;;;;;;;22.05;51.73;100814.94;5129754;27;20169;-62
2022/05/14 05:29:06;;;;;;;4.13;2.17;;;;;;;22.04;51.77;100810.41;5096276;28;20166;-62
2022/05/14 05:31:32;;;;;;;7.03;2.10;;;;;;;22.02;51.88;100813.69;5091605;28;20201;-62
2022/05/14 05:34:00;;;;;;;4.00;2.17;;;;;;;22.02;51.78;100822.31;5091273;28;20174;-62
2022/05/14 05:36:25;;;;;;;3.20;1.50;;;;;;;22.03;51.90;100811.66;5091932;28;20803;-62
2022/05/14 05:38:51;;;;;;;5.63;2.03;;;;;;;22.03;51.67;100818.19;5091528;28;20419;-62
2022/05/14 05:41:18;;;;;;;3.63;1.77;;;;;;;22.03;52.01;100823.97;5091537;28;20633;-61
2022/05/14 05:43:43;;;;;;;2.90;1.57;;;;;;;22.03;51.78;100815.34;5091302;28;20204;-61
2022/05/14 05:46:09;;;;;;;3.70;1.83;;;;;;;22.02;52.07;100825.19;5091612;28;20428;-61
2022/05/14 05:48:34;;;;;;;3.80;1.70;;;;;;;22.01;52.10;100820.66;5104302;28;20178;-61
2022/05/14 05:51:00;;;;;;;3.60;2.20;;;;;;;22.01;52.32;100822.69;5101502;28;20208;-61
2022/05/14 05:56:46;;;;;;;2.97;1.70;;;;;;;22.01;52.18;100823.53;5109930;28;20189;-62
2022/05/14 05:58:55;;;;;;;3.93;2.13;;;;;;;22.01;52.21;100828.44;5110363;28;20436;-61
2022/05/14 06:01:20;;;;;;;3.47;1.50;;;;;;;21.99;52.52;100823.09;5092394;28;20428;-61
2022/05/14 06:03:48;;;;;;;3.10;1.77;;;;;;;21.99;52.17;100830.91;5089235;28;20162;-61
2022/05/14 06:06:14;;;;;;;5.73;1.70;;;;;;;22.00;52.39;100826.78;5101483;28;20310;-61
2022/05/14 06:08:40;;;;;;;6.10;1.97;;;;;;;21.98;52.02;100824.31;5109689;28;20896;-61
2022/05/14 06:11:05;;;;;;;4.67;1.67;;;;;;;21.97;52.20;100830.47;5102371;28;20235;-61
2022/05/14 06:13:30;;;;;;;3.90;1.60;;;;;;;21.96;52.31;100823.88;5110495;28;20202;-61
2022/05/14 06:15:56;;;;;;;2.57;1.60;;;;;;;21.96;52.04;100831.66;5103240;28;20174;-61
2022/05/14 06:18:21;;;;;;;3.43;1.70;;;;;;;21.95;52.29;100830.84;5104432;28;20180;-61
2022/05/14 06:20:47;;;;;;;3.43;1.80;;;;;;;21.96;52.33;100825.91;5111200;28;20284;-61
2022/05/14 06:23:14;;;;;;;3.57;1.70;;;;;;;21.96;52.16;100831.66;5102529;28;20170;-61
2022/05/14 06:25:39;;;;;;;3.47;2.10;;;;;;;21.95;52.25;100830.84;5090602;28;20242;-61
2022/05/14 06:28:05;;;;;;;6.30;2.10;;;;;;;21.94;52.06;100826.34;5091026;28;20890;-61
2022/05/14 06:30:31;;;;;;;6.73;1.80;;;;;;;21.94;52.16;100834.97;5090628;28;20684;-61
2022/05/14 06:33:03;;;;;;;6.30;1.97;;;;;;;21.94;52.19;100831.25;5090641;28;20420;-61
2022/05/14 06:35:29;;;;;;;4.10;1.60;;;;;;;21.93;52.21;100832.47;5089634;28;20263;-61
2022/05/14 06:37:55;;;;;;;4.33;1.87;;;;;;;21.93;52.28;100839.03;5089337;28;20424;-61
2022/05/14 06:40:20;;;;;;;3.13;1.47;;;;;;;21.92;52.13;100837.38;5105190;28;20702;-61
2022/05/14 06:42:46;;;;;;;3.90;1.47;;;;;;;21.92;51.78;100837.38;5108783;28;20419;-61
2022/05/14 06:45:11;;;;;;;3.70;1.87;;;;;;;21.92;52.21;100837.38;5108373;28;20197;-61
2022/05/14 06:47:37;;;;;;;4.57;2.07;;;;;;;21.92;52.02;100837.38;5108692;28;20165;-61
2022/05/14 06:50:04;;;;;;;3.30;1.57;;;;;;;21.93;52.31;100841.91;5110035;28;20191;-61
2022/05/14 06:52:29;;;;;;;3.63;1.70;;;;;;;21.92;52.29;100837.38;5109988;28;20237;-61
2022/05/14 06:54:55;;;;;;;4.77;1.60;;;;;;;21.92;52.49;100848.06;5110149;28;20415;-61
2022/05/14 06:57:20;;;;;;;2.63;1.40;;;;;;;21.90;52.51;100842.69;5108755;28;20166;-61
2022/05/14 06:59:46;;;;;;;6.83;1.80;;;;;;;21.90;52.01;100848.44;5104332;28;20185;-61
2022/05/14 07:02:11;;;;;;;3.93;1.70;;;;;;;21.91;52.60;100849.25;5089269;28;20166;-61
2022/05/14 07:07:21;;;;;;;6.43;1.80;;;;;;;21.88;52.67;100853.75;5087761;28;20166;-61
2022/05/14 07:09:49;;;;;;;3.50;1.27;;;;;;;21.87;52.59;100843.47;5086545;28;20482;-61
2022/05/14 07:12:15;;;;;;;4.00;1.33;;;;;;;21.86;52.36;100844.69;5088608;28;20190;-61
2022/05/14 07:14:40;;;;;;;3.50;1.77;;;;;;;21.88;52.31;100844.31;5087983;28;20408;-61
2022/05/14 07:17:08;;;;;;;5.03;1.63;;;;;;;21.88;52.33;100842.25;5103331;28;20501;-61
2022/05/14 07:19:34;;;;;;;2.43;1.50;;;;;;;21.87;51.78;100837.72;5110934;27;20224;-61
2022/05/14 07:22:00;;;;;;;3.37;1.67;;;;;;;21.88;52.40;100847.19;5097188;28;20416;-61
2022/05/14 07:24:26;;;;;;;4.20;1.80;;;;;;;21.88;52.57;100842.25;5104859;28;20578;-61
2022/05/14 07:26:54;;;;;;;4.30;1.80;;;;;;;21.87;52.09;100845.53;5093190;28;20937;-62
2022/05/14 07:29:21;;;;;;;3.00;1.40;;;;;;;21.86;52.12;100836.06;5087747;28;20451;-62
2022/05/14 07:31:47;;;;;;;3.03;1.43;;;;;;;21.86;52.26;100841.81;5089692;28;20483;-61
2022/05/14 07:34:12;;;;;;;3.70;1.47;;;;;;;21.86;52.41;100844.69;5090423;28;20432;-61
2022/05/14 07:36:53;;;;;;;2.93;1.60;;;;;;;21.86;52.08;100840.97;5092818;28;20170;-61
2022/05/14 07:39:19;;;;;;;3.60;1.60;;;;;;;21.86;52.70;100841.81;5091206;28;20633;-61
2022/05/14 07:41:44;;;;;;;4.03;1.50;;;;;;;21.86;52.58;100844.69;5099931;28;20404;-61
2022/05/14 07:44:11;;;;;;;5.37;1.67;;;;;;;21.86;52.53;100838.09;5111223;28;20481;-61
2022/05/14 07:46:37;;;;;;;3.47;1.77;;;;;;;21.87;51.79;100839.78;5112159;28;20289;-61
2022/05/14 07:49:05;;;;;;;3.30;1.83;;;;;;;21.86;52.44;100833.19;5111213;28;20420;-61
2022/05/14 07:51:31;;;;;;;2.63;1.43;;;;;;;21.88;52.45;100844.31;5109841;28;20190;-61
2022/05/14 07:53:56;;;;;;;3.50;1.70;;;;;;;21.83;52.34;100839.72;5111805;28;20472;-61
2022/05/14 07:56:21;;;;;;;3.10;1.80;;;;;;;21.80;52.94;100833.94;5111075;28;20169;-62
2022/05/14 07:58:47;;;;;;;5.70;1.63;;;;;;;21.85;52.71;100833.59;5112177;27;20632;-62
2022/05/14 08:01:13;;;;;;;4.63;2.40;;;;;;;21.99;53.47;100831.75;5093958;28;20659;-62
2022/05/14 08:03:38;;;;;;;7.37;2.80;;;;;;;22.00;53.81;100829.66;5091788;28;20243;-61
2022/05/14 08:06:04;;;;;;;9.37;2.07;;;;;;;22.03;53.16;100838.34;5099832;28;20175;-61
2022/05/14 08:08:29;;;;;;;4.20;2.20;;;;;;;22.03;53.07;100832.59;5095266;28;20205;-61
2022/05/14 08:10:55;;;;;;;4.50;2.10;;;;;;;22.01;52.27;100832.16;5093020;28;20364;-61
2022/05/14 08:13:22;;;;;;;6.23;2.27;;;;;;;21.98;52.08;100838.69;5093288;28;20166;-61
2022/05/14 08:15:48;;;;;;;6.10;2.13;;;;;;;21.99;51.75;100840.38;5110128;28;20599;-61
2022/05/14 08:18:13;;;;;;;11.27;2.50;;;;;;;21.99;51.86;100834.63;5098005;27;20460;-61
2022/05/14 08:20:39;;;;;;;5.17;1.80;;;;;;;22.01;51.57;100845.69;5099989;28;20177;-61
2022/05/14 08:25:51;;;;;;;6.50;1.60;;;;;;;21.95;51.33;100836.59;5102011;28;20453;-61
2022/05/14 08:28:16;;;;;;;5.33;1.73;;;;;;;21.97;51.46;100834.16;5112730;28;20898;-61
2022/05/14 08:30:42;;;;;;;5.43;2.13;;;;;;;21.99;50.63;100833.78;5106251;27;20201;-61
2022/05/14 08:33:07;;;;;;;6.00;1.70;;;;;;;22.00;50.85;100838.28;5112782;28;20197;-61
2022/05/14 08:35:33;;;;;;;5.17;1.83;;;;;;;22.01;51.21;100835.03;5111875;28;20185;-61
2022/05/14 08:37:59;;;;;;;10.20;1.90;;;;;;;22.01;50.58;100835.03;5094552;28;20173;-61
2022/05/14 08:40:29;;;;;;;7.07;1.83;;;;;;;22.05;51.76;100835.91;5112886;28;20416;-61
2022/05/14 08:43:01;;;;;;;7.47;1.80;;;;;;;22.07;51.86;100832.66;5112486;28;20218;-61
2022/05/14 08:45:28;;;;;;;7.17;1.50;;;;;;;22.11;52.03;100834.34;5109800;28;20540;-61
2022/05/14 08:48:27;;;;;;;5.63;1.73;;;;;;;22.07;51.52;100830.59;5111102;28;20407;-61
2022/05/14 08:51:24;;;;;;;5.80;1.67;;;;;;;22.07;52.29;100824.84;5107021;28;20463;-61
2022/05/14 08:53:50;;;;;;;5.40;1.63;;;;;;;22.11;51.27;100831.47;5099905;28;20780;-61
2022/05/14 08:56:21;;;;;;;8.77;2.10;;;;;;;22.25;51.30;100827.91;5109874;28;20658;-61
2022/05/14 08:59:17;;;;;;;7.20;1.67;;;;;;;22.27;50.96;100820.56;5110556;28;20178;-61
2022/05/14 09:01:44;;;;;;;6.60;2.10;;;;;;;22.40;51.80;100821.09;5108877;28;20519;-61
2022/05/14 09:04:10;;;;;;;6.50;1.87;;;;;;;22.37;52.37;100819.03;5109496;28;20416;-61
2022/05/14 09:06:36;;;;;;;4.30;1.77;;;;;;;22.38;52.27;100820.69;5110565;28;20431;-62
2022/05/14 09:09:02;;;;;;;7.13;1.97;;;;;;;22.37;52.29;100822.72;5110618;28;20495;-62
2022/05/14 09:11:36;;;;;;;5.53;1.90;;;;;;;22.44;52.29;100813.34;5090604;28;20498;-61
2022/05/14 09:14:01;;;;;;;5.30;1.73;;;;;;;22.41;52.94;100814.13;5091418;28;20690;-61
2022/05/14 09:16:31;;;;;;;7.10;1.43;;;;;;;22.40;53.30;100816.19;5103933;27;20427;-61
2022/05/14 09:18:56;;;;;;;3.77;1.60;;;;;;;22.25;52.35;100817.25;5132748;27;20188;-61
2022/05/14 09:21:24;;;;;;;8.20;1.80;;;;;;;22.18;52.04;100820.03;5131713;27;21017;-61
2022/05/14 09:23:55;;;;;;;6.53;1.67;;;;;;;22.15;49.47;100812.22;5111048;27;20178;-61
2022/05/14 09:26:34;;;;;;;7.03;1.70;;;;;;;22.34;48.33;100809.13;5091549;28;20424;-61
2022/05/14 09:29:17;;;;;;;12.70;2.23;;;;;;;22.58;49.47;100811.47;5089052;28;20403;-61
2022/05/14 09:31:52;;;;;;;4.37;2.07;;;;;;;22.66;49.83;100816.06;5106225;28;20525;-61
2022/05/14 09:34:18;;;;;;;3.73;1.90;;;;;;;22.69;49.63;100811.56;5107029;28;20456;-61
2022/05/14 09:36:45;;;;;;;4.27;2.10;;;;;;;22.74;48.71;100816.97;5110504;28;20441;-61
2022/05/14 09:39:18;;;;;;;5.10;2.03;;;;;;;22.67;48.28;100814.03;5110154;28;20169;-61
2022/05/14 09:41:46;;;;;;;5.90;1.57;;;;;;;22.65;47.98;100808.66;5106187;28;20434;-61
2022/05/14 09:44:21;;;;;;;6.43;1.80;;;;;;;22.60;47.74;100811.06;5108099;28;20427;-61
2022/05/14 09:46:47;;;;;;;5.37;2.17;;;;;;;22.59;47.97;100809.41;5092309;28;20892;-61
2022/05/14 09:49:21;;;;;;;4.50;2.10;;;;;;;22.58;47.58;100808.56;5088096;28;20413;-61
2022/05/14 09:51:50;;;;;;;5.80;2.40;;;;;;;22.65;48.23;100802.91;5105143;28;20678;-61
2022/05/14 09:54:29;;;;;;;8.70;2.33;;;;;;;22.66;48.81;100803.72;5109239;28;20411;-61
2022/05/14 09:57:23;;;;;;;5.03;2.10;;;;;;;22.61;48.94;100804.91;5110869;28;20454;-61
2022/05/14 10:00:05;;;;;;;4.23;1.60;;;;;;;22.60;49.23;100811.91;5091518;28;20442;-61
2022/05/14 10:02:50;;;;;;;4.83;1.50;;;;;;;22.62;49.34;100806.56;5088787;28;20427;-61
2022/05/14 10:05:34;;;;;;;6.60;2.10;;;;;;;22.61;49.72;100810.69;5106900;28;20845;-61
2022/05/14 10:08:09;;;;;;;3.23;1.37;;;;;;;22.61;50.47;100804.06;5106487;28;20782;-60
2022/05/14 10:10:53;;;;;;;4.87;1.43;;;;;;;22.59;50.43;100792.16;5089045;28;20586;-63
2022/05/14 10:13:27;;;;;;;12.13;1.33;;;;;;;22.64;50.41;100795.50;5109246;28;20503;-61
2022/05/14 10:16:03;;;;;;;3.50;1.70;;;;;;;22.62;49.86;100792.19;5105036;28;20415;-62
2022/05/14 10:19:07;;;;;;;5.07;1.70;;;;;;;22.58;49.22;100790.50;5091820;28;20459;-62
2022/05/14 10:22:04;;;;;;;6.50;1.93;;;;;;;22.52;49.22;100787.16;5090879;28;20432;-62
2022/05/14 10:27:37;;;;;;;3.00;1.63;;;;;;;22.52;47.54;100792.91;5091077;28;20412;-62
2022/05/14 10:30:16;;;;;;;3.27;1.20;;;;;;;22.52;47.34;100786.34;5093447;28;20522;-62
2022/05/14 10:32:46;;;;;;;2.93;1.50;;;;;;;22.54;47.39;100778.97;5100025;28;20447;-63
2022/05/14 10:35:27;;;;;;;4.10;1.33;;;;;;;22.55;46.83;100786.38;5110401;28;20424;-63
2022/05/14 10:37:57;;;;;;;5.27;1.40;;;;;;;22.52;47.80;100784.25;5110028;28;20430;-63
2022/05/14 10:40:34;;;;;;;3.40;1.60;;;;;;;22.49;47.54;100785.09;5110448;28;20458;-62
2022/05/14 10:43:37;;;;;;;4.50;2.00;;;;;;;22.52;47.35;100778.50;5093788;28;20434;-62
2022/05/14 10:46:08;;;;;;;5.00;1.60;;;;;;;22.51;46.79;100774.00;5100764;28;20500;-63
2022/05/14 10:48:43;;;;;;;4.17;1.60;;;;;;;22.53;46.52;100765.78;5088549;28;20858;-61
2022/05/14 10:51:11;;;;;;;3.67;1.37;;;;;;;22.61;45.57;100770.38;5096712;28;20475;-61
2022/05/14 10:53:39;;;;;;;5.60;1.30;;;;;;;22.58;46.15;100759.66;5107337;28;20475;-61
2022/05/14 10:56:12;;;;;;;5.87;1.50;;;;;;;22.57;46.46;100765.84;5075195;28;20427;-61
2022/05/14 10:58:43;;;;;;;3.83;1.30;;;;;;;22.56;47.04;100761.28;5109210;28;20418;-62
2022/05/14 11:01:33;;;;;;;5.93;1.80;;;;;;;22.52;46.92;100752.63;5104826;28;20438;-62
2022/05/14 11:04:52;;;;;;;6.80;1.63;;;;;;;22.52;46.39;100757.56;5110254;28;20423;-62
2022/05/14 11:07:32;;;;;;;7.73;1.10;;;;;;;22.46;45.92;100750.50;5067883;28;20421;-62
2022/05/14 11:10:27;;;;;;;6.70;1.80;;;;;;;22.45;43.94;100746.81;5106768;28;20506;-62
2022/05/14 11:12:53;;;;;;;7.50;2.00;;;;;;;22.48;42.79;100748.06;5103447;28;21095;-62
2022/05/14 11:15:24;;;;;;;3.90;1.77;;;;;;;22.44;42.52;100752.91;5107090;28;20428;-62
2022/05/14 11:17:52;;;;;;;4.43;1.60;;;;;;;22.40;42.67;100744.25;5121472;27;20222;-62
2022/05/14 11:20:18;;;;;;;3.17;1.00;;;;;;;22.47;42.59;100752.16;5090850;28;20432;-62
2022/05/14 11:22:49;;;;;;;4.80;1.50;;;;;;;22.45;42.78;100749.69;5091429;28;20922;-62
2022/05/14 11:25:20;;;;;;;5.97;1.80;;;;;;;22.51;44.95;100748.09;5097215;28;20180;-62
2022/05/14 11:28:02;;;;;;;12.23;1.50;;;;;;;22.54;44.86;100741.56;5112481;28;20419;-63
2022/05/14 11:30:39;;;;;;;6.80;1.80;;;;;;;22.54;45.60;100744.44;5110435;28;20431;-62
2022/05/14 11:33:22;;;;;;;5.13;1.20;;;;;;;22.53;45.31;100737.00;5112028;28;20468;-63
2022/05/14 11:35:49;;;;;;;4.30;1.47;;;;;;;22.59;45.24;100740.34;5096149;28;20432;-62
2022/05/14 11:38:26;;;;;;;3.70;1.37;;;;;;;22.55;44.46;100723.06;5087174;28;20435;-62
2022/05/14 11:41:05;;;;;;;11.73;1.60;;;;;;;22.62;44.95;100723.09;5093684;28;20420;-62
2022/05/14 11:43:46;;;;;;;5.47;1.57;;;;;;;22.61;45.59;100730.09;5098589;28;20906;-63
2022/05/14 11:46:31;;;;;;;8.73;1.30;;;;;;;22.59;46.01;100726.78;5098441;28;20466;-62
2022/05/14 11:49:04;;;;;;;5.40;1.40;;;;;;;22.69;44.66;100716.56;5093846;28;20427;-62
2022/05/14 11:52:08;;;;;;;6.93;1.27;;;;;;;22.68;44.29;100709.19;5105919;28;20448;-62